sensor_id;sensor_type;location;lat;lon;timestamp;pressure;altitude;pressure_sealevel;temperature
71205;BMP180;58935;54.498;18.544;2022-11-20T00:01:21;100133.00;;;-1.00
71205;BMP180;58935;54.498;18.544;2022-11-20T00:03:50;100141.60;;;-1.00
71205;BMP180;58935;54.498;18.544;2022-11-20T00:06:17;100137.00;;;-0.90
71205;BMP180;58935;54.498;18.544;2022-11-20T00:08:43;100142.60;;;-0.90
71205;BMP180;58935;54.498;18.544;2022-11-20T00:11:13;100137.40;;;-0.90
71205;BMP180;58935;54.498;18.544;2022-11-20T00:13:38;100138.40;;;-0.92
71205;BMP180;58935;54.498;18.544;2022-11-20T00:16:07;100135.00;;;-0.94
71205;BMP180;58935;54.498;18.544;2022-11-20T00:18:34;100138.40;;;-0.96
71205;BMP180;58935;54.498;18.544;2022-11-20T00:21:04;100135.80;;;-0.92
71205;BMP180;58935;54.498;18.544;2022-11-20T00:23:31;100137.40;;;-0.96
71205;BMP180;58935;54.498;18.544;2022-11-20T00:25:56;100133.60;;;-1.00
71205;BMP180;58935;54.498;18.544;2022-11-20T00:28:22;100135.00;;;-1.00
71205;BMP180;58935;54.498;18.544;2022-11-20T00:30:47;100134.60;;;-0.92
71205;BMP180;58935;54.498;18.544;2022-11-20T00:33:12;100135.00;;;-0.94
71205;BMP180;58935;54.498;18.544;2022-11-20T00:35:38;100133.60;;;-0.90
71205;BMP180;58935;54.498;18.544;2022-11-20T00:38:03;100130.20;;;-0.98
71205;BMP180;58935;54.498;18.544;2022-11-20T00:40:29;100131.80;;;-1.00
71205;BMP180;58935;54.498;18.544;2022-11-20T00:42:54;100131.40;;;-0.90
71205;BMP180;58935;54.498;18.544;2022-11-20T00:45:21;100134.40;;;-0.90
71205;BMP180;58935;54.498;18.544;2022-11-20T00:47:47;100132.80;;;-0.82
71205;BMP180;58935;54.498;18.544;2022-11-20T00:50:15;100138.80;;;-0.86
71205;BMP180;58935;54.498;18.544;2022-11-20T00:52:43;100132.80;;;-0.80
71205;BMP180;58935;54.498;18.544;2022-11-20T00:55:08;100134.20;;;-0.80
71205;BMP180;58935;54.498;18.544;2022-11-20T00:57:33;100131.00;;;-0.76
71205;BMP180;58935;54.498;18.544;2022-11-20T00:59:58;100131.20;;;-0.76
71205;BMP180;58935;54.498;18.544;2022-11-20T01:02:24;100136.60;;;-0.78
71205;BMP180;58935;54.498;18.544;2022-11-20T01:04:49;100144.00;;;-0.80
71205;BMP180;58935;54.498;18.544;2022-11-20T01:07:14;100143.40;;;-0.80
71205;BMP180;58935;54.498;18.544;2022-11-20T01:09:42;100144.20;;;-0.80
71205;BMP180;58935;54.498;18.544;2022-11-20T01:12:07;100141.80;;;-0.80
71205;BMP180;58935;54.498;18.544;2022-11-20T01:14:32;100141.00;;;-0.70
71205;BMP180;58935;54.498;18.544;2022-11-20T01:16:58;100139.00;;;-0.70
71205;BMP180;58935;54.498;18.544;2022-11-20T01:19:23;100135.40;;;-0.70
71205;BMP180;58935;54.498;18.544;2022-11-20T01:21:52;100134.40;;;-0.76
71205;BMP180;58935;54.498;18.544;2022-11-20T01:24:19;100136.40;;;-0.74
71205;BMP180;58935;54.498;18.544;2022-11-20T01:26:48;100134.80;;;-0.70
71205;BMP180;58935;54.498;18.544;2022-11-20T01:29:19;100129.60;;;-0.70
71205;BMP180;58935;54.498;18.544;2022-11-20T01:31:45;100131.80;;;-0.60
71205;BMP180;58935;54.498;18.544;2022-11-20T01:34:13;100125.60;;;-0.60
71205;BMP180;58935;54.498;18.544;2022-11-20T01:36:40;100135.20;;;-0.60
71205;BMP180;58935;54.498;18.544;2022-11-20T01:39:11;100134.80;;;-0.52
71205;BMP180;58935;54.498;18.544;2022-11-20T01:41:38;100136.40;;;-0.50
71205;BMP180;58935;54.498;18.544;2022-11-20T01:44:09;100130.20;;;-0.60
71205;BMP180;58935;54.498;18.544;2022-11-20T01:46:36;100128.20;;;-0.60
71205;BMP180;58935;54.498;18.544;2022-11-20T01:49:16;100132.40;;;-0.60
71205;BMP180;58935;54.498;18.544;2022-11-20T01:51:46;100131.80;;;-0.70
71205;BMP180;58935;54.498;18.544;2022-11-20T01:54:17;100133.40;;;-0.70
71205;BMP180;58935;54.498;18.544;2022-11-20T01:56:45;100135.80;;;-0.70
71205;BMP180;58935;54.498;18.544;2022-11-20T01:59:15;100134.00;;;-0.70
71205;BMP180;58935;54.498;18.544;2022-11-20T02:01:41;100133.80;;;-0.70
71205;BMP180;58935;54.498;18.544;2022-11-20T02:04:07;100130.80;;;-0.64
71205;BMP180;58935;54.498;18.544;2022-11-20T02:09:08;100121.80;;;-0.60
71205;BMP180;58935;54.498;18.544;2022-11-20T02:11:33;100124.80;;;-0.60
71205;BMP180;58935;54.498;18.544;2022-11-20T02:13:59;100125.00;;;-0.60
71205;BMP180;58935;54.498;18.544;2022-11-20T02:16:27;100127.80;;;-0.60
71205;BMP180;58935;54.498;18.544;2022-11-20T02:18:55;100125.60;;;-0.60
71205;BMP180;58935;54.498;18.544;2022-11-20T02:21:30;100136.20;;;-0.70
71205;BMP180;58935;54.498;18.544;2022-11-20T02:24:09;100132.60;;;-0.70
71205;BMP180;58935;54.498;18.544;2022-11-20T02:26:48;100134.40;;;-0.70
71205;BMP180;58935;54.498;18.544;2022-11-20T02:29:19;100134.80;;;-0.78
71205;BMP180;58935;54.498;18.544;2022-11-20T02:31:48;100134.80;;;-0.80
71205;BMP180;58935;54.498;18.544;2022-11-20T02:34:13;100131.40;;;-0.82
71205;BMP180;58935;54.498;18.544;2022-11-20T02:36:40;100134.20;;;-0.90
71205;BMP180;58935;54.498;18.544;2022-11-20T02:39:07;100125.20;;;-0.92
71205;BMP180;58935;54.498;18.544;2022-11-20T02:41:36;100124.80;;;-1.00
71205;BMP180;58935;54.498;18.544;2022-11-20T02:44:05;100126.20;;;-0.92
71205;BMP180;58935;54.498;18.544;2022-11-20T02:46:31;100123.80;;;-0.90
71205;BMP180;58935;54.498;18.544;2022-11-20T02:49:01;100122.00;;;-0.84
71205;BMP180;58935;54.498;18.544;2022-11-20T02:51:27;100123.40;;;-0.80
71205;BMP180;58935;54.498;18.544;2022-11-20T02:53:52;100120.40;;;-0.80
71205;BMP180;58935;54.498;18.544;2022-11-20T02:56:19;100115.20;;;-0.80
71205;BMP180;58935;54.498;18.544;2022-11-20T02:58:45;100119.00;;;-0.80
71205;BMP180;58935;54.498;18.544;2022-11-20T03:01:11;100114.00;;;-0.80
71205;BMP180;58935;54.498;18.544;2022-11-20T03:03:39;100109.40;;;-0.84
71205;BMP180;58935;54.498;18.544;2022-11-20T03:06:05;100108.20;;;-0.80
71205;BMP180;58935;54.498;18.544;2022-11-20T03:08:30;100108.20;;;-0.86
71205;BMP180;58935;54.498;18.544;2022-11-20T03:10:55;100104.80;;;-0.90
71205;BMP180;58935;54.498;18.544;2022-11-20T03:13:21;100105.60;;;-0.90
71205;BMP180;58935;54.498;18.544;2022-11-20T03:15:46;100103.40;;;-0.90
71205;BMP180;58935;54.498;18.544;2022-11-20T03:18:12;100108.60;;;-0.90
71205;BMP180;58935;54.498;18.544;2022-11-20T03:20:41;100111.40;;;-0.90
71205;BMP180;58935;54.498;18.544;2022-11-20T03:23:06;100110.20;;;-0.90
71205;BMP180;58935;54.498;18.544;2022-11-20T03:25:31;100121.00;;;-0.90
71205;BMP180;58935;54.498;18.544;2022-11-20T03:27:57;100120.80;;;-0.90
71205;BMP180;58935;54.498;18.544;2022-11-20T03:30:22;100114.40;;;-0.90
71205;BMP180;58935;54.498;18.544;2022-11-20T03:32:48;100113.00;;;-0.80
71205;BMP180;58935;54.498;18.544;2022-11-20T03:35:13;100112.80;;;-0.80
71205;BMP180;58935;54.498;18.544;2022-11-20T03:37:38;100110.80;;;-0.72
71205;BMP180;58935;54.498;18.544;2022-11-20T03:40:04;100110.80;;;-0.70
71205;BMP180;58935;54.498;18.544;2022-11-20T03:42:30;100102.00;;;-0.70
71205;BMP180;58935;54.498;18.544;2022-11-20T03:45:00;100102.60;;;-0.70
71205;BMP180;58935;54.498;18.544;2022-11-20T03:47:26;100094.60;;;-0.70
71205;BMP180;58935;54.498;18.544;2022-11-20T03:49:51;100094.80;;;-0.70
71205;BMP180;58935;54.498;18.544;2022-11-20T03:52:17;100093.20;;;-0.70
71205;BMP180;58935;54.498;18.544;2022-11-20T03:54:44;100093.60;;;-0.70
71205;BMP180;58935;54.498;18.544;2022-11-20T03:57:10;100093.20;;;-0.70
71205;BMP180;58935;54.498;18.544;2022-11-20T03:59:35;100090.80;;;-0.70
71205;BMP180;58935;54.498;18.544;2022-11-20T04:02:00;100090.60;;;-0.70
71205;BMP180;58935;54.498;18.544;2022-11-20T04:04:26;100086.00;;;-0.70
71205;BMP180;58935;54.498;18.544;2022-11-20T04:06:51;100085.80;;;-0.70
71205;BMP180;58935;54.498;18.544;2022-11-20T04:09:16;100086.40;;;-0.70
71205;BMP180;58935;54.498;18.544;2022-11-20T04:11:42;100086.00;;;-0.70
71205;BMP180;58935;54.498;18.544;2022-11-20T04:14:13;100085.60;;;-0.70
71205;BMP180;58935;54.498;18.544;2022-11-20T04:16:39;100083.80;;;-0.70
71205;BMP180;58935;54.498;18.544;2022-11-20T04:19:09;100081.00;;;-0.70
71205;BMP180;58935;54.498;18.544;2022-11-20T04:21:35;100075.80;;;-0.70
71205;BMP180;58935;54.498;18.544;2022-11-20T04:24:01;100075.40;;;-0.70
71205;BMP180;58935;54.498;18.544;2022-11-20T04:26:27;100071.40;;;-0.68
71205;BMP180;58935;54.498;18.544;2022-11-20T04:28:53;100072.20;;;-0.62
71205;BMP180;58935;54.498;18.544;2022-11-20T04:31:22;100075.60;;;-0.60
71205;BMP180;58935;54.498;18.544;2022-11-20T04:33:50;100074.00;;;-0.60
71205;BMP180;58935;54.498;18.544;2022-11-20T04:36:20;100069.40;;;-0.60
71205;BMP180;58935;54.498;18.544;2022-11-20T04:38:50;100062.60;;;-0.60
71205;BMP180;58935;54.498;18.544;2022-11-20T04:41:19;100060.80;;;-0.60
71205;BMP180;58935;54.498;18.544;2022-11-20T04:43:50;100056.20;;;-0.60
71205;BMP180;58935;54.498;18.544;2022-11-20T04:46:17;100053.00;;;-0.60
71205;BMP180;58935;54.498;18.544;2022-11-20T04:48:43;100050.80;;;-0.60
71205;BMP180;58935;54.498;18.544;2022-11-20T04:51:12;100051.00;;;-0.60
71205;BMP180;58935;54.498;18.544;2022-11-20T04:53:38;100047.40;;;-0.70
71205;BMP180;58935;54.498;18.544;2022-11-20T04:56:05;100049.60;;;-0.70
71205;BMP180;58935;54.498;18.544;2022-11-20T04:58:32;100045.20;;;-0.78
71205;BMP180;58935;54.498;18.544;2022-11-20T05:01:09;100048.60;;;-0.80
71205;BMP180;58935;54.498;18.544;2022-11-20T05:03:35;100043.40;;;-0.90
71205;BMP180;58935;54.498;18.544;2022-11-20T05:06:02;100040.40;;;-0.90
71205;BMP180;58935;54.498;18.544;2022-11-20T05:08:28;100043.60;;;-0.90
71205;BMP180;58935;54.498;18.544;2022-11-20T05:10:54;100044.20;;;-0.90
71205;BMP180;58935;54.498;18.544;2022-11-20T05:13:21;100037.20;;;-0.90
71205;BMP180;58935;54.498;18.544;2022-11-20T05:15:47;100040.80;;;-0.82
71205;BMP180;58935;54.498;18.544;2022-11-20T05:18:12;100039.80;;;-0.80
71205;BMP180;58935;54.498;18.544;2022-11-20T05:20:37;100034.20;;;-0.80
71205;BMP180;58935;54.498;18.544;2022-11-20T05:23:03;100034.60;;;-0.80
71205;BMP180;58935;54.498;18.544;2022-11-20T05:25:28;100037.40;;;-0.80
71205;BMP180;58935;54.498;18.544;2022-11-20T05:27:53;100037.00;;;-0.74
71205;BMP180;58935;54.498;18.544;2022-11-20T05:30:19;100034.80;;;-0.76
71205;BMP180;58935;54.498;18.544;2022-11-20T05:32:44;100034.60;;;-0.78
71205;BMP180;58935;54.498;18.544;2022-11-20T05:35:09;100032.20;;;-0.80
71205;BMP180;58935;54.498;18.544;2022-11-20T05:37:35;100033.20;;;-0.90
71205;BMP180;58935;54.498;18.544;2022-11-20T05:40:00;100030.40;;;-0.90
71205;BMP180;58935;54.498;18.544;2022-11-20T05:42:26;100039.00;;;-0.90
71205;BMP180;58935;54.498;18.544;2022-11-20T05:44:54;100035.60;;;-0.96
71205;BMP180;58935;54.498;18.544;2022-11-20T05:47:19;100034.00;;;-0.90
71205;BMP180;58935;54.498;18.544;2022-11-20T05:49:45;100035.00;;;-0.86
71205;BMP180;58935;54.498;18.544;2022-11-20T05:52:10;100036.00;;;-0.80
71205;BMP180;58935;54.498;18.544;2022-11-20T05:54:35;100033.00;;;-0.80
71205;BMP180;58935;54.498;18.544;2022-11-20T05:57:01;100032.00;;;-0.80
71205;BMP180;58935;54.498;18.544;2022-11-20T05:59:26;100035.60;;;-0.80
71205;BMP180;58935;54.498;18.544;2022-11-20T06:01:51;100034.80;;;-0.88
71205;BMP180;58935;54.498;18.544;2022-11-20T06:04:19;100031.80;;;-0.98
71205;BMP180;58935;54.498;18.544;2022-11-20T06:06:47;100030.60;;;-1.02
71205;BMP180;58935;54.498;18.544;2022-11-20T06:09:12;100034.60;;;-1.10
71205;BMP180;58935;54.498;18.544;2022-11-20T06:11:37;100035.00;;;-1.20
71205;BMP180;58935;54.498;18.544;2022-11-20T06:14:03;100033.80;;;-1.20
71205;BMP180;58935;54.498;18.544;2022-11-20T06:16:31;100034.40;;;-1.30
71205;BMP180;58935;54.498;18.544;2022-11-20T06:18:56;100031.60;;;-1.40
71205;BMP180;58935;54.498;18.544;2022-11-20T06:21:24;100035.20;;;-1.50
71205;BMP180;58935;54.498;18.544;2022-11-20T06:23:52;100040.80;;;-1.60
71205;BMP180;58935;54.498;18.544;2022-11-20T06:26:22;100037.60;;;-1.70
71205;BMP180;58935;54.498;18.544;2022-11-20T06:28:48;100027.80;;;-1.80
71205;BMP180;58935;54.498;18.544;2022-11-20T06:31:15;100033.20;;;-1.90
71205;BMP180;58935;54.498;18.544;2022-11-20T06:33:42;100036.00;;;-1.90
71205;BMP180;58935;54.498;18.544;2022-11-20T06:36:09;100039.40;;;-2.00
71205;BMP180;58935;54.498;18.544;2022-11-20T06:38:35;100037.20;;;-2.10
71205;BMP180;58935;54.498;18.544;2022-11-20T06:41:00;100032.00;;;-2.10
71205;BMP180;58935;54.498;18.544;2022-11-20T06:43:25;100034.40;;;-2.10
71205;BMP180;58935;54.498;18.544;2022-11-20T06:45:52;100034.80;;;-2.10
71205;BMP180;58935;54.498;18.544;2022-11-20T06:48:18;100035.00;;;-2.10
71205;BMP180;58935;54.498;18.544;2022-11-20T06:50:43;100037.00;;;-2.10
71205;BMP180;58935;54.498;18.544;2022-11-20T06:53:08;100038.40;;;-2.10
71205;BMP180;58935;54.498;18.544;2022-11-20T06:55:33;100047.80;;;-2.10
71205;BMP180;58935;54.498;18.544;2022-11-20T06:57:59;100037.00;;;-2.10
71205;BMP180;58935;54.498;18.544;2022-11-20T07:00:24;100040.60;;;-2.10
71205;BMP180;58935;54.498;18.544;2022-11-20T07:02:50;100048.00;;;-2.12
71205;BMP180;58935;54.498;18.544;2022-11-20T07:05:16;100051.00;;;-2.20
71205;BMP180;58935;54.498;18.544;2022-11-20T07:07:44;100050.60;;;-2.20
71205;BMP180;58935;54.498;18.544;2022-11-20T07:10:09;100052.00;;;-2.20
71205;BMP180;58935;54.498;18.544;2022-11-20T07:12:35;100050.40;;;-2.20
71205;BMP180;58935;54.498;18.544;2022-11-20T07:15:01;100049.00;;;-2.20
71205;BMP180;58935;54.498;18.544;2022-11-20T07:17:26;100046.80;;;-2.24
71205;BMP180;58935;54.498;18.544;2022-11-20T07:19:51;100042.60;;;-2.30
71205;BMP180;58935;54.498;18.544;2022-11-20T07:22:19;100044.20;;;-2.30
71205;BMP180;58935;54.498;18.544;2022-11-20T07:24:47;100042.80;;;-2.30
71205;BMP180;58935;54.498;18.544;2022-11-20T07:27:12;100044.00;;;-2.32
71205;BMP180;58935;54.498;18.544;2022-11-20T07:29:38;100041.00;;;-2.36
71205;BMP180;58935;54.498;18.544;2022-11-20T07:32:03;100035.60;;;-2.38
71205;BMP180;58935;54.498;18.544;2022-11-20T07:34:29;100033.20;;;-2.32
71205;BMP180;58935;54.498;18.544;2022-11-20T07:36:54;100033.00;;;-2.32
71205;BMP180;58935;54.498;18.544;2022-11-20T07:39:19;100032.40;;;-2.32
71205;BMP180;58935;54.498;18.544;2022-11-20T07:41:45;100032.80;;;-2.30
71205;BMP180;58935;54.498;18.544;2022-11-20T07:44:13;100030.20;;;-2.30
71205;BMP180;58935;54.498;18.544;2022-11-20T07:46:41;100031.20;;;-2.20
71205;BMP180;58935;54.498;18.544;2022-11-20T07:49:06;100031.20;;;-2.10
71205;BMP180;58935;54.498;18.544;2022-11-20T07:51:32;100027.80;;;-2.00
71205;BMP180;58935;54.498;18.544;2022-11-20T07:53:57;100032.40;;;-1.90
71205;BMP180;58935;54.498;18.544;2022-11-20T07:56:22;100033.80;;;-1.80
71205;BMP180;58935;54.498;18.544;2022-11-20T07:58:50;100040.00;;;-1.70
71205;BMP180;58935;54.498;18.544;2022-11-20T08:01:15;100027.00;;;-1.60
71205;BMP180;58935;54.498;18.544;2022-11-20T08:03:41;100030.00;;;-1.50
71205;BMP180;58935;54.498;18.544;2022-11-20T08:06:09;100024.20;;;-1.40
71205;BMP180;58935;54.498;18.544;2022-11-20T08:08:36;100031.00;;;-1.30
71205;BMP180;58935;54.498;18.544;2022-11-20T08:11:04;100024.60;;;-1.30
71205;BMP180;58935;54.498;18.544;2022-11-20T08:13:35;100019.80;;;-1.20
71205;BMP180;58935;54.498;18.544;2022-11-20T08:16:03;100019.20;;;-1.20
71205;BMP180;58935;54.498;18.544;2022-11-20T08:18:29;100022.20;;;-1.10
71205;BMP180;58935;54.498;18.544;2022-11-20T08:20:54;100022.00;;;-1.10
71205;BMP180;58935;54.498;18.544;2022-11-20T08:23:19;100026.20;;;-1.10
71205;BMP180;58935;54.498;18.544;2022-11-20T08:25:48;100018.40;;;-1.00
71205;BMP180;58935;54.498;18.544;2022-11-20T08:28:14;100019.60;;;-0.92
71205;BMP180;58935;54.498;18.544;2022-11-20T08:30:40;100017.20;;;-0.90
71205;BMP180;58935;54.498;18.544;2022-11-20T08:33:07;100014.80;;;-0.80
71205;BMP180;58935;54.498;18.544;2022-11-20T08:35:36;100008.00;;;-0.80
71205;BMP180;58935;54.498;18.544;2022-11-20T08:38:03;100009.40;;;-0.70
71205;BMP180;58935;54.498;18.544;2022-11-20T08:40:29;100010.60;;;-0.60
71205;BMP180;58935;54.498;18.544;2022-11-20T08:42:55;100006.20;;;-0.50
71205;BMP180;58935;54.498;18.544;2022-11-20T08:45:20;99998.40;;;-0.50
71205;BMP180;58935;54.498;18.544;2022-11-20T08:47:45;99992.60;;;-0.50
71205;BMP180;58935;54.498;18.544;2022-11-20T08:50:13;99988.40;;;-0.40
71205;BMP180;58935;54.498;18.544;2022-11-20T08:52:39;99985.60;;;-0.40
71205;BMP180;58935;54.498;18.544;2022-11-20T08:55:05;99983.80;;;-0.30
71205;BMP180;58935;54.498;18.544;2022-11-20T08:57:33;99980.40;;;-0.30
71205;BMP180;58935;54.498;18.544;2022-11-20T08:59:58;99983.60;;;-0.30
71205;BMP180;58935;54.498;18.544;2022-11-20T09:02:24;99984.60;;;-0.30
71205;BMP180;58935;54.498;18.544;2022-11-20T09:04:49;99979.20;;;-0.30
71205;BMP180;58935;54.498;18.544;2022-11-20T09:07:15;99982.00;;;-0.30
71205;BMP180;58935;54.498;18.544;2022-11-20T09:09:40;99979.80;;;-0.30
71205;BMP180;58935;54.498;18.544;2022-11-20T09:12:06;99977.40;;;-0.30
71205;BMP180;58935;54.498;18.544;2022-11-20T09:14:31;99979.20;;;-0.24
71205;BMP180;58935;54.498;18.544;2022-11-20T09:16:59;99979.40;;;-0.20
71205;BMP180;58935;54.498;18.544;2022-11-20T09:19:25;99982.00;;;-0.20
71205;BMP180;58935;54.498;18.544;2022-11-20T09:21:51;99980.20;;;-0.20
71205;BMP180;58935;54.498;18.544;2022-11-20T09:24:17;99987.00;;;-0.10
71205;BMP180;58935;54.498;18.544;2022-11-20T09:26:42;99980.00;;;-0.10
71205;BMP180;58935;54.498;18.544;2022-11-20T09:29:08;99973.00;;;0.00
71205;BMP180;58935;54.498;18.544;2022-11-20T09:31:33;99973.80;;;0.10
71205;BMP180;58935;54.498;18.544;2022-11-20T09:33:59;99975.80;;;0.20
71205;BMP180;58935;54.498;18.544;2022-11-20T09:36:24;99972.00;;;0.30
71205;BMP180;58935;54.498;18.544;2022-11-20T09:38:49;99969.00;;;0.38
71205;BMP180;58935;54.498;18.544;2022-11-20T09:52:37;99964.80;;;0.84
71205;BMP180;58935;54.498;18.544;2022-11-20T09:55:10;99959.40;;;0.98
71205;BMP180;58935;54.498;18.544;2022-11-20T09:57:40;99962.60;;;1.00
71205;BMP180;58935;54.498;18.544;2022-11-20T10:00:11;99961.00;;;1.00
71205;BMP180;58935;54.498;18.544;2022-11-20T10:03:00;99960.20;;;1.00
71205;BMP180;58935;54.498;18.544;2022-11-20T10:05:33;99959.80;;;0.86
71205;BMP180;58935;54.498;18.544;2022-11-20T10:08:15;99958.80;;;0.80
71205;BMP180;58935;54.498;18.544;2022-11-20T10:10:46;99959.80;;;0.70
71205;BMP180;58935;54.498;18.544;2022-11-20T10:15:53;99950.60;;;0.70
71205;BMP180;58935;54.498;18.544;2022-11-20T10:18:42;99947.80;;;0.78
71205;BMP180;58935;54.498;18.544;2022-11-20T10:23:58;99950.60;;;0.70
71205;BMP180;58935;54.498;18.544;2022-11-20T10:27:05;99940.20;;;0.70
71205;BMP180;58935;54.498;18.544;2022-11-20T10:29:17;99942.20;;;0.70
71205;BMP180;58935;54.498;18.544;2022-11-20T10:31:46;99937.60;;;0.80
71205;BMP180;58935;54.498;18.544;2022-11-20T10:34:18;99941.80;;;0.80
71205;BMP180;58935;54.498;18.544;2022-11-20T10:36:52;99940.40;;;0.80
71205;BMP180;58935;54.498;18.544;2022-11-20T10:39:43;99934.60;;;0.80
71205;BMP180;58935;54.498;18.544;2022-11-20T10:42:16;99929.80;;;0.74
71205;BMP180;58935;54.498;18.544;2022-11-20T10:44:52;99931.60;;;0.80
71205;BMP180;58935;54.498;18.544;2022-11-20T10:47:21;99927.00;;;0.90
71205;BMP180;58935;54.498;18.544;2022-11-20T10:49:52;99927.40;;;1.10
71205;BMP180;58935;54.498;18.544;2022-11-20T10:52:31;99919.80;;;1.20
71205;BMP180;58935;54.498;18.544;2022-11-20T10:55:18;99922.80;;;1.30
71205;BMP180;58935;54.498;18.544;2022-11-20T11:00:23;99926.20;;;1.40
71205;BMP180;58935;54.498;18.544;2022-11-20T11:02:53;99922.60;;;1.40
71205;BMP180;58935;54.498;18.544;2022-11-20T11:05:41;99923.40;;;1.42
71205;BMP180;58935;54.498;18.544;2022-11-20T11:08:17;99922.80;;;1.42
71205;BMP180;58935;54.498;18.544;2022-11-20T11:10:56;99912.20;;;1.40
71205;BMP180;58935;54.498;18.544;2022-11-20T11:13:24;99916.20;;;1.30
71205;BMP180;58935;54.498;18.544;2022-11-20T11:15:50;99916.00;;;1.26
71205;BMP180;58935;54.498;18.544;2022-11-20T11:20:50;99912.60;;;1.20
71205;BMP180;58935;54.498;18.544;2022-11-20T11:25:59;99905.60;;;1.30
71205;BMP180;58935;54.498;18.544;2022-11-20T11:28:25;99902.00;;;1.30
71205;BMP180;58935;54.498;18.544;2022-11-20T11:30:53;99894.60;;;1.20
71205;BMP180;58935;54.498;18.544;2022-11-20T11:33:22;99892.80;;;1.22
71205;BMP180;58935;54.498;18.544;2022-11-20T11:35:53;99894.40;;;1.20
71205;BMP180;58935;54.498;18.544;2022-11-20T11:38:23;99897.20;;;1.30
71205;BMP180;58935;54.498;18.544;2022-11-20T11:40:54;99892.00;;;1.30
71205;BMP180;58935;54.498;18.544;2022-11-20T11:43:26;99891.80;;;1.36
71205;BMP180;58935;54.498;18.544;2022-11-20T11:45:57;99887.80;;;1.30
71205;BMP180;58935;54.498;18.544;2022-11-20T11:48:22;99888.60;;;1.30
71205;BMP180;58935;54.498;18.544;2022-11-20T11:50:49;99883.40;;;1.20
71205;BMP180;58935;54.498;18.544;2022-11-20T11:53:18;99881.20;;;1.10
71205;BMP180;58935;54.498;18.544;2022-11-20T11:55:56;99887.60;;;1.10
71205;BMP180;58935;54.498;18.544;2022-11-20T11:58:45;99882.00;;;1.18
71205;BMP180;58935;54.498;18.544;2022-11-20T12:04:00;99877.20;;;1.20
71205;BMP180;58935;54.498;18.544;2022-11-20T12:06:28;99876.00;;;1.20
71205;BMP180;58935;54.498;18.544;2022-11-20T12:09:01;99872.80;;;1.12
71205;BMP180;58935;54.498;18.544;2022-11-20T12:12:05;99875.60;;;1.10
71205;BMP180;58935;54.498;18.544;2022-11-20T12:14:24;99871.80;;;1.12
71205;BMP180;58935;54.498;18.544;2022-11-20T12:16:52;99875.20;;;1.30
71205;BMP180;58935;54.498;18.544;2022-11-20T12:19:19;99866.20;;;1.30
71205;BMP180;58935;54.498;18.544;2022-11-20T12:21:51;99859.80;;;1.30
71205;BMP180;58935;54.498;18.544;2022-11-20T12:27:09;99853.60;;;1.20
71205;BMP180;58935;54.498;18.544;2022-11-20T12:32:47;99850.00;;;1.20
71205;BMP180;58935;54.498;18.544;2022-11-20T12:35:25;99843.60;;;1.20
71205;BMP180;58935;54.498;18.544;2022-11-20T12:40:32;99836.80;;;1.20
71205;BMP180;58935;54.498;18.544;2022-11-20T12:43:11;99832.20;;;1.20
71205;BMP180;58935;54.498;18.544;2022-11-20T12:46:00;99832.60;;;1.20
71205;BMP180;58935;54.498;18.544;2022-11-20T12:48:58;99829.40;;;1.30
71205;BMP180;58935;54.498;18.544;2022-11-20T12:51:34;99826.40;;;1.26
71205;BMP180;58935;54.498;18.544;2022-11-20T12:56:57;99824.20;;;1.20
71205;BMP180;58935;54.498;18.544;2022-11-20T12:59:38;99814.40;;;1.20
71205;BMP180;58935;54.498;18.544;2022-11-20T13:07:24;99813.60;;;1.20
71205;BMP180;58935;54.498;18.544;2022-11-20T13:09:51;99800.00;;;1.20
71205;BMP180;58935;54.498;18.544;2022-11-20T13:15:05;99795.80;;;1.10
71205;BMP180;58935;54.498;18.544;2022-11-20T13:17:52;99795.00;;;1.16
71205;BMP180;58935;54.498;18.544;2022-11-20T13:20:21;99797.00;;;1.10
71205;BMP180;58935;54.498;18.544;2022-11-20T13:22:49;99794.00;;;1.00
71205;BMP180;58935;54.498;18.544;2022-11-20T13:27:48;99788.80;;;1.00
71205;BMP180;58935;54.498;18.544;2022-11-20T13:30:18;99784.40;;;1.08
71205;BMP180;58935;54.498;18.544;2022-11-20T13:32:48;99788.20;;;1.00
71205;BMP180;58935;54.498;18.544;2022-11-20T13:35:30;99786.80;;;1.00
71205;BMP180;58935;54.498;18.544;2022-11-20T13:38:08;99782.80;;;0.90
71205;BMP180;58935;54.498;18.544;2022-11-20T13:40:37;99783.80;;;1.00
71205;BMP180;58935;54.498;18.544;2022-11-20T13:43:08;99780.20;;;0.90
71205;BMP180;58935;54.498;18.544;2022-11-20T13:45:35;99778.20;;;0.80
71205;BMP180;58935;54.498;18.544;2022-11-20T13:48:19;99782.00;;;0.80
71205;BMP180;58935;54.498;18.544;2022-11-20T13:50:54;99778.80;;;0.74
71205;BMP180;58935;54.498;18.544;2022-11-20T13:53:38;99775.60;;;0.70
71205;BMP180;58935;54.498;18.544;2022-11-20T13:58:58;99771.80;;;0.78
71205;BMP180;58935;54.498;18.544;2022-11-20T14:01:29;99776.60;;;0.80
71205;BMP180;58935;54.498;18.544;2022-11-20T14:03:56;99770.60;;;0.80
71205;BMP180;58935;54.498;18.544;2022-11-20T14:06:28;99771.60;;;0.80
71205;BMP180;58935;54.498;18.544;2022-11-20T14:08:58;99768.60;;;0.80
71205;BMP180;58935;54.498;18.544;2022-11-20T14:11:29;99765.20;;;0.80
71205;BMP180;58935;54.498;18.544;2022-11-20T14:13:59;99763.00;;;0.80
71205;BMP180;58935;54.498;18.544;2022-11-20T14:16:27;99765.40;;;0.72
71205;BMP180;58935;54.498;18.544;2022-11-20T14:18:57;99765.00;;;0.70
71205;BMP180;58935;54.498;18.544;2022-11-20T14:21:26;99761.00;;;0.62
71205;BMP180;58935;54.498;18.544;2022-11-20T14:24:05;99758.60;;;0.60
71205;BMP180;58935;54.498;18.544;2022-11-20T14:26:33;99759.00;;;0.60
71205;BMP180;58935;54.498;18.544;2022-11-20T14:29:02;99752.60;;;0.60
71205;BMP180;58935;54.498;18.544;2022-11-20T14:31:28;99750.40;;;0.60
71205;BMP180;58935;54.498;18.544;2022-11-20T14:33:56;99748.00;;;0.60
71205;BMP180;58935;54.498;18.544;2022-11-20T14:36:23;99746.00;;;0.60
71205;BMP180;58935;54.498;18.544;2022-11-20T14:38:50;99738.80;;;0.58
71205;BMP180;58935;54.498;18.544;2022-11-20T14:41:19;99735.80;;;0.50
71205;BMP180;58935;54.498;18.544;2022-11-20T14:43:47;99737.80;;;0.50
71205;BMP180;58935;54.498;18.544;2022-11-20T14:46:17;99739.80;;;0.42
71205;BMP180;58935;54.498;18.544;2022-11-20T14:48:50;99733.40;;;0.40
71205;BMP180;58935;54.498;18.544;2022-11-20T14:53:47;99728.80;;;0.30
71205;BMP180;58935;54.498;18.544;2022-11-20T14:56:21;99722.00;;;0.34